sensor_id;sensor_type;location;lat;lon;timestamp;P1;durP1;ratioP1;P2;durP2;ratioP2
40058;SDS011;25763;49.972;8.568;2023-05-07T00:01:28;10.13;;;9.52;;
40058;SDS011;25763;49.972;8.568;2023-05-07T00:03:53;9.90;;;9.27;;
40058;SDS011;25763;49.972;8.568;2023-05-07T00:06:19;10.07;;;9.38;;
40058;SDS011;25763;49.972;8.568;2023-05-07T00:08:44;9.85;;;9.25;;
40058;SDS011;25763;49.972;8.568;2023-05-07T00:11:10;10.95;;;10.25;;
40058;SDS011;25763;49.972;8.568;2023-05-07T00:13:35;9.68;;;9.07;;
40058;SDS011;25763;49.972;8.568;2023-05-07T00:16:01;10.77;;;10.07;;
40058;SDS011;25763;49.972;8.568;2023-05-07T00:18:27;10.20;;;9.50;;
40058;SDS011;25763;49.972;8.568;2023-05-07T00:20:53;9.73;;;9.13;;
40058;SDS011;25763;49.972;8.568;2023-05-07T00:23:18;9.93;;;9.32;;
40058;SDS011;25763;49.972;8.568;2023-05-07T00:25:43;10.07;;;9.40;;
40058;SDS011;25763;49.972;8.568;2023-05-07T00:28:08;10.10;;;9.43;;
40058;SDS011;25763;49.972;8.568;2023-05-07T00:30:34;10.00;;;9.40;;
40058;SDS011;25763;49.972;8.568;2023-05-07T00:32:59;9.68;;;9.07;;
40058;SDS011;25763;49.972;8.568;2023-05-07T00:35:25;9.63;;;9.02;;
40058;SDS011;25763;49.972;8.568;2023-05-07T00:37:50;9.98;;;9.38;;
40058;SDS011;25763;49.972;8.568;2023-05-07T00:40:16;9.85;;;9.05;;
40058;SDS011;25763;49.972;8.568;2023-05-07T00:42:41;10.00;;;9.40;;
40058;SDS011;25763;49.972;8.568;2023-05-07T00:45:06;9.82;;;9.23;;
40058;SDS011;25763;49.972;8.568;2023-05-07T00:47:32;10.00;;;9.40;;
40058;SDS011;25763;49.972;8.568;2023-05-07T00:49:58;9.63;;;9.02;;
40058;SDS011;25763;49.972;8.568;2023-05-07T00:52:23;10.05;;;9.45;;
40058;SDS011;25763;49.972;8.568;2023-05-07T00:54:50;10.60;;;9.90;;
40058;SDS011;25763;49.972;8.568;2023-05-07T00:57:16;11.07;;;10.38;;
40058;SDS011;25763;49.972;8.568;2023-05-07T00:59:42;10.18;;;9.57;;
40058;SDS011;25763;49.972;8.568;2023-05-07T01:02:07;10.40;;;9.77;;
40058;SDS011;25763;49.972;8.568;2023-05-07T01:04:33;9.88;;;9.27;;
40058;SDS011;25763;49.972;8.568;2023-05-07T01:06:58;11.18;;;10.48;;
40058;SDS011;25763;49.972;8.568;2023-05-07T01:09:25;9.60;;;9.00;;
40058;SDS011;25763;49.972;8.568;2023-05-07T01:11:51;10.68;;;10.07;;
40058;SDS011;25763;49.972;8.568;2023-05-07T01:14:17;10.07;;;9.48;;
40058;SDS011;25763;49.972;8.568;2023-05-07T01:16:43;11.23;;;10.52;;
40058;SDS011;25763;49.972;8.568;2023-05-07T01:19:09;10.68;;;9.98;;
40058;SDS011;25763;49.972;8.568;2023-05-07T01:21:36;9.73;;;9.13;;
40058;SDS011;25763;49.972;8.568;2023-05-07T01:24:03;10.52;;;9.82;;
40058;SDS011;25763;49.972;8.568;2023-05-07T01:26:30;10.43;;;9.73;;
40058;SDS011;25763;49.972;8.568;2023-05-07T01:28:55;9.93;;;9.32;;
40058;SDS011;25763;49.972;8.568;2023-05-07T01:31:20;10.40;;;9.70;;
40058;SDS011;25763;49.972;8.568;2023-05-07T01:33:48;9.77;;;9.18;;
40058;SDS011;25763;49.972;8.568;2023-05-07T01:36:15;9.90;;;9.30;;
40058;SDS011;25763;49.972;8.568;2023-05-07T01:38:42;10.57;;;9.88;;
40058;SDS011;25763;49.972;8.568;2023-05-07T01:41:08;10.07;;;9.48;;
40058;SDS011;25763;49.972;8.568;2023-05-07T01:43:33;10.60;;;9.98;;
40058;SDS011;25763;49.972;8.568;2023-05-07T01:45:59;11.35;;;10.65;;
40058;SDS011;25763;49.972;8.568;2023-05-07T01:48:26;9.65;;;9.05;;
40058;SDS011;25763;49.972;8.568;2023-05-07T01:50:51;10.18;;;9.57;;
40058;SDS011;25763;49.972;8.568;2023-05-07T01:53:17;10.43;;;9.80;;
40058;SDS011;25763;49.972;8.568;2023-05-07T01:55:42;9.82;;;9.23;;
40058;SDS011;25763;49.972;8.568;2023-05-07T01:58:08;9.45;;;8.85;;
40058;SDS011;25763;49.972;8.568;2023-05-07T02:00:33;9.98;;;9.27;;
40058;SDS011;25763;49.972;8.568;2023-05-07T02:02:59;9.77;;;9.18;;
40058;SDS011;25763;49.972;8.568;2023-05-07T02:05:24;9.77;;;9.18;;
40058;SDS011;25763;49.972;8.568;2023-05-07T02:07:49;10.30;;;9.65;;
40058;SDS011;25763;49.972;8.568;2023-05-07T02:10:15;10.57;;;9.98;;
40058;SDS011;25763;49.972;8.568;2023-05-07T02:12:40;10.27;;;9.68;;
40058;SDS011;25763;49.972;8.568;2023-05-07T02:15:06;10.88;;;10.18;;
40058;SDS011;25763;49.972;8.568;2023-05-07T02:17:31;11.00;;;10.30;;
40058;SDS011;25763;49.972;8.568;2023-05-07T02:19:58;10.52;;;9.88;;
40058;SDS011;25763;49.972;8.568;2023-05-07T02:22:23;11.48;;;10.77;;
40058;SDS011;25763;49.972;8.568;2023-05-07T02:24:49;10.65;;;10.05;;
40058;SDS011;25763;49.972;8.568;2023-05-07T02:27:14;11.13;;;10.43;;
40058;SDS011;25763;49.972;8.568;2023-05-07T02:29:40;10.30;;;9.70;;
40058;SDS011;25763;49.972;8.568;2023-05-07T02:32:05;10.60;;;9.95;;
40058;SDS011;25763;49.972;8.568;2023-05-07T02:34:31;10.30;;;9.60;;
40058;SDS011;25763;49.972;8.568;2023-05-07T02:36:56;10.88;;;10.18;;
40058;SDS011;25763;49.972;8.568;2023-05-07T02:39:21;12.13;;;11.43;;
40058;SDS011;25763;49.972;8.568;2023-05-07T02:41:47;12.85;;;12.13;;
40058;SDS011;25763;49.972;8.568;2023-05-07T02:44:12;12.00;;;11.30;;
40058;SDS011;25763;49.972;8.568;2023-05-07T02:46:37;12.50;;;11.57;;
40058;SDS011;25763;49.972;8.568;2023-05-07T02:49:03;12.32;;;11.48;;
40058;SDS011;25763;49.972;8.568;2023-05-07T02:51:29;13.57;;;12.77;;
40058;SDS011;25763;49.972;8.568;2023-05-07T02:53:55;13.55;;;12.75;;
40058;SDS011;25763;49.972;8.568;2023-05-07T02:56:21;12.60;;;11.90;;
40058;SDS011;25763;49.972;8.568;2023-05-07T02:58:46;13.75;;;12.95;;
40058;SDS011;25763;49.972;8.568;2023-05-07T03:01:12;13.35;;;12.55;;
40058;SDS011;25763;49.972;8.568;2023-05-07T03:03:39;13.75;;;12.95;;
40058;SDS011;25763;49.972;8.568;2023-05-07T03:06:05;12.85;;;12.05;;
40058;SDS011;25763;49.972;8.568;2023-05-07T03:08:31;15.45;;;14.55;;
40058;SDS011;25763;49.972;8.568;2023-05-07T03:10:57;14.40;;;13.60;;
40058;SDS011;25763;49.972;8.568;2023-05-07T03:13:22;14.63;;;13.82;;
40058;SDS011;25763;49.972;8.568;2023-05-07T03:15:48;13.82;;;13.02;;
40058;SDS011;25763;49.972;8.568;2023-05-07T03:18:13;15.60;;;14.70;;
40058;SDS011;25763;49.972;8.568;2023-05-07T03:20:39;16.23;;;15.32;;
40058;SDS011;25763;49.972;8.568;2023-05-07T03:23:04;15.65;;;14.75;;
40058;SDS011;25763;49.972;8.568;2023-05-07T03:25:30;16.23;;;15.32;;
40058;SDS011;25763;49.972;8.568;2023-05-07T03:27:56;16.73;;;15.82;;
40058;SDS011;25763;49.972;8.568;2023-05-07T03:30:21;15.68;;;14.77;;
40058;SDS011;25763;49.972;8.568;2023-05-07T03:32:47;15.32;;;14.43;;
40058;SDS011;25763;49.972;8.568;2023-05-07T03:35:12;15.40;;;14.50;;
40058;SDS011;25763;49.972;8.568;2023-05-07T03:37:38;14.73;;;13.82;;
40058;SDS011;25763;49.972;8.568;2023-05-07T03:40:04;14.82;;;13.93;;
40058;SDS011;25763;49.972;8.568;2023-05-07T03:42:30;13.85;;;13.05;;
40058;SDS011;25763;49.972;8.568;2023-05-07T03:44:55;15.07;;;14.20;;
40058;SDS011;25763;49.972;8.568;2023-05-07T03:47:21;14.38;;;13.55;;
40058;SDS011;25763;49.972;8.568;2023-05-07T03:49:46;14.80;;;14.00;;
40058;SDS011;25763;49.972;8.568;2023-05-07T03:52:11;16.02;;;15.13;;
40058;SDS011;25763;49.972;8.568;2023-05-07T03:54:37;15.82;;;14.93;;
40058;SDS011;25763;49.972;8.568;2023-05-07T03:57:02;16.73;;;15.82;;
40058;SDS011;25763;49.972;8.568;2023-05-07T03:59:27;16.80;;;15.90;;
40058;SDS011;25763;49.972;8.568;2023-05-07T04:01:53;17.70;;;16.70;;
40058;SDS011;25763;49.972;8.568;2023-05-07T04:04:18;18.67;;;17.65;;
40058;SDS011;25763;49.972;8.568;2023-05-07T04:06:43;18.25;;;17.25;;
40058;SDS011;25763;49.972;8.568;2023-05-07T04:09:09;18.77;;;17.73;;
40058;SDS011;25763;49.972;8.568;2023-05-07T04:11:35;17.73;;;16.70;;
40058;SDS011;25763;49.972;8.568;2023-05-07T04:14:01;17.58;;;16.58;;
40058;SDS011;25763;49.972;8.568;2023-05-07T04:16:26;18.30;;;17.25;;
40058;SDS011;25763;49.972;8.568;2023-05-07T04:18:52;17.40;;;16.42;;
40058;SDS011;25763;49.972;8.568;2023-05-07T04:21:18;19.50;;;18.40;;
40058;SDS011;25763;49.972;8.568;2023-05-07T04:23:44;19.80;;;18.70;;
40058;SDS011;25763;49.972;8.568;2023-05-07T04:26:09;17.80;;;16.80;;
40058;SDS011;25763;49.972;8.568;2023-05-07T04:28:35;16.95;;;16.05;;
40058;SDS011;25763;49.972;8.568;2023-05-07T04:31:00;17.52;;;16.52;;
40058;SDS011;25763;49.972;8.568;2023-05-07T04:33:26;16.15;;;15.15;;
40058;SDS011;25763;49.972;8.568;2023-05-07T04:35:51;18.73;;;17.73;;
40058;SDS011;25763;49.972;8.568;2023-05-07T04:38:16;17.27;;;16.27;;
40058;SDS011;25763;49.972;8.568;2023-05-07T04:40:43;16.38;;;15.48;;
40058;SDS011;25763;49.972;8.568;2023-05-07T04:43:09;18.48;;;17.05;;
40058;SDS011;25763;49.972;8.568;2023-05-07T04:45:35;19.00;;;17.30;;
40058;SDS011;25763;49.972;8.568;2023-05-07T04:48:00;16.10;;;15.20;;
40058;SDS011;25763;49.972;8.568;2023-05-07T04:50:26;16.65;;;15.70;;
40058;SDS011;25763;49.972;8.568;2023-05-07T04:52:51;16.17;;;15.27;;
40058;SDS011;25763;49.972;8.568;2023-05-07T04:55:17;16.85;;;15.95;;
40058;SDS011;25763;49.972;8.568;2023-05-07T04:57:42;17.92;;;16.92;;
40058;SDS011;25763;49.972;8.568;2023-05-07T05:00:07;18.67;;;17.67;;
40058;SDS011;25763;49.972;8.568;2023-05-07T05:02:34;16.08;;;15.18;;
40058;SDS011;25763;49.972;8.568;2023-05-07T05:05:00;16.15;;;15.25;;
40058;SDS011;25763;49.972;8.568;2023-05-07T05:07:27;14.88;;;14.02;;
40058;SDS011;25763;49.972;8.568;2023-05-07T05:09:53;15.00;;;14.13;;
40058;SDS011;25763;49.972;8.568;2023-05-07T05:12:19;17.50;;;15.88;;
40058;SDS011;25763;49.972;8.568;2023-05-07T05:14:44;13.27;;;12.48;;
40058;SDS011;25763;49.972;8.568;2023-05-07T05:17:09;14.50;;;13.60;;
40058;SDS011;25763;49.972;8.568;2023-05-07T05:19:35;14.95;;;13.98;;
40058;SDS011;25763;49.972;8.568;2023-05-07T05:22:00;13.45;;;12.65;;
40058;SDS011;25763;49.972;8.568;2023-05-07T05:24:26;13.02;;;12.23;;
40058;SDS011;25763;49.972;8.568;2023-05-07T05:26:53;11.30;;;10.60;;
40058;SDS011;25763;49.972;8.568;2023-05-07T05:29:19;11.50;;;10.80;;
40058;SDS011;25763;49.972;8.568;2023-05-07T05:31:44;12.27;;;11.57;;
40058;SDS011;25763;49.972;8.568;2023-05-07T05:34:10;11.52;;;10.73;;
40058;SDS011;25763;49.972;8.568;2023-05-07T05:36:35;11.30;;;10.60;;
40058;SDS011;25763;49.972;8.568;2023-05-07T05:39:01;10.27;;;9.68;;
40058;SDS011;25763;49.972;8.568;2023-05-07T05:41:26;10.35;;;9.65;;
40058;SDS011;25763;49.972;8.568;2023-05-07T05:43:51;10.25;;;9.65;;
40058;SDS011;25763;49.972;8.568;2023-05-07T05:46:17;10.38;;;9.77;;
40058;SDS011;25763;49.972;8.568;2023-05-07T05:48:42;10.43;;;9.77;;
40058;SDS011;25763;49.972;8.568;2023-05-07T05:51:07;9.90;;;9.10;;
40058;SDS011;25763;49.972;8.568;2023-05-07T05:53:33;11.07;;;10.25;;
40058;SDS011;25763;49.972;8.568;2023-05-07T05:55:58;9.70;;;9.10;;
40058;SDS011;25763;49.972;8.568;2023-05-07T05:58:24;10.00;;;9.40;;
40058;SDS011;25763;49.972;8.568;2023-05-07T06:00:49;9.63;;;9.02;;
40058;SDS011;25763;49.972;8.568;2023-05-07T06:03:17;10.88;;;10.20;;
40058;SDS011;25763;49.972;8.568;2023-05-07T06:05:42;10.82;;;10.13;;
40058;SDS011;25763;49.972;8.568;2023-05-07T06:08:08;10.02;;;9.43;;
40058;SDS011;25763;49.972;8.568;2023-05-07T06:10:33;11.23;;;10.52;;
40058;SDS011;25763;49.972;8.568;2023-05-07T06:13:01;13.00;;;11.90;;
40058;SDS011;25763;49.972;8.568;2023-05-07T06:15:26;12.57;;;11.88;;
40058;SDS011;25763;49.972;8.568;2023-05-07T06:17:52;12.70;;;12.00;;
40058;SDS011;25763;49.972;8.568;2023-05-07T06:20:17;14.48;;;13.68;;
40058;SDS011;25763;49.972;8.568;2023-05-07T06:22:42;14.30;;;13.50;;
40058;SDS011;25763;49.972;8.568;2023-05-07T06:25:08;14.02;;;13.23;;
40058;SDS011;25763;49.972;8.568;2023-05-07T06:27:33;14.68;;;13.77;;
40058;SDS011;25763;49.972;8.568;2023-05-07T06:29:59;14.60;;;13.80;;
40058;SDS011;25763;49.972;8.568;2023-05-07T06:32:24;14.07;;;13.27;;
40058;SDS011;25763;49.972;8.568;2023-05-07T06:34:50;15.70;;;14.80;;
40058;SDS011;25763;49.972;8.568;2023-05-07T06:37:15;14.77;;;13.95;;
40058;SDS011;25763;49.972;8.568;2023-05-07T06:39:40;15.90;;;14.98;;
40058;SDS011;25763;49.972;8.568;2023-05-07T06:42:06;16.02;;;15.13;;
40058;SDS011;25763;49.972;8.568;2023-05-07T06:44:31;15.00;;;14.10;;
40058;SDS011;25763;49.972;8.568;2023-05-07T06:46:57;15.48;;;14.57;;
40058;SDS011;25763;49.972;8.568;2023-05-07T06:49:22;16.17;;;15.27;;
40058;SDS011;25763;49.972;8.568;2023-05-07T06:51:47;16.35;;;15.45;;
40058;SDS011;25763;49.972;8.568;2023-05-07T06:54:13;16.35;;;15.45;;
40058;SDS011;25763;49.972;8.568;2023-05-07T06:56:38;16.58;;;15.57;;
40058;SDS011;25763;49.972;8.568;2023-05-07T06:59:04;18.55;;;17.15;;
40058;SDS011;25763;49.972;8.568;2023-05-07T07:01:29;21.25;;;20.10;;
40058;SDS011;25763;49.972;8.568;2023-05-07T07:03:54;20.77;;;19.65;;
40058;SDS011;25763;49.972;8.568;2023-05-07T07:06:20;20.67;;;19.52;;
40058;SDS011;25763;49.972;8.568;2023-05-07T07:08:45;23.50;;;22.23;;
40058;SDS011;25763;49.972;8.568;2023-05-07T07:11:11;22.05;;;20.85;;
40058;SDS011;25763;49.972;8.568;2023-05-07T07:13:36;25.08;;;23.70;;
40058;SDS011;25763;49.972;8.568;2023-05-07T07:16:02;26.63;;;25.23;;
40058;SDS011;25763;49.972;8.568;2023-05-07T07:18:28;28.20;;;26.73;;
40058;SDS011;25763;49.972;8.568;2023-05-07T07:20:53;28.48;;;26.98;;
40058;SDS011;25763;49.972;8.568;2023-05-07T07:23:19;27.00;;;25.55;;
40058;SDS011;25763;49.972;8.568;2023-05-07T07:25:44;27.80;;;26.20;;
40058;SDS011;25763;49.972;8.568;2023-05-07T07:28:10;29.00;;;27.50;;
40058;SDS011;25763;49.972;8.568;2023-05-07T07:30:36;28.35;;;26.85;;
40058;SDS011;25763;49.972;8.568;2023-05-07T07:33:02;26.92;;;25.42;;
40058;SDS011;25763;49.972;8.568;2023-05-07T07:35:34;28.00;;;26.52;;
40058;SDS011;25763;49.972;8.568;2023-05-07T07:37:59;29.30;;;27.75;;
40058;SDS011;25763;49.972;8.568;2023-05-07T07:40:25;26.50;;;25.10;;
40058;SDS011;25763;49.972;8.568;2023-05-07T07:42:51;29.00;;;27.45;;
40058;SDS011;25763;49.972;8.568;2023-05-07T07:45:17;27.38;;;25.90;;
40058;SDS011;25763;49.972;8.568;2023-05-07T07:47:42;26.67;;;25.23;;
40058;SDS011;25763;49.972;8.568;2023-05-07T07:50:08;27.10;;;25.67;;
40058;SDS011;25763;49.972;8.568;2023-05-07T07:52:34;26.25;;;24.80;;
40058;SDS011;25763;49.972;8.568;2023-05-07T07:58:21;22.60;;;21.40;;
40058;SDS011;25763;49.972;8.568;2023-05-07T08:00:47;27.88;;;26.38;;
40058;SDS011;25763;49.972;8.568;2023-05-07T08:03:12;25.30;;;23.95;;
40058;SDS011;25763;49.972;8.568;2023-05-07T08:05:39;26.63;;;25.23;;
40058;SDS011;25763;49.972;8.568;2023-05-07T08:08:04;26.45;;;25.05;;
40058;SDS011;25763;49.972;8.568;2023-05-07T08:10:30;35.30;;;33.47;;
40058;SDS011;25763;49.972;8.568;2023-05-07T08:12:59;28.05;;;26.55;;
40058;SDS011;25763;49.972;8.568;2023-05-07T08:15:25;28.92;;;27.42;;
40058;SDS011;25763;49.972;8.568;2023-05-07T08:17:50;29.02;;;27.52;;
40058;SDS011;25763;49.972;8.568;2023-05-07T08:20:16;24.45;;;23.15;;
40058;SDS011;25763;49.972;8.568;2023-05-07T08:22:41;24.77;;;23.48;;
40058;SDS011;25763;49.972;8.568;2023-05-07T08:25:07;25.95;;;24.55;;
40058;SDS011;25763;49.972;8.568;2023-05-07T08:27:32;25.52;;;24.17;;
40058;SDS011;25763;49.972;8.568;2023-05-07T08:29:57;25.13;;;23.73;;
40058;SDS011;25763;49.972;8.568;2023-05-07T08:32:23;22.88;;;21.67;;
40058;SDS011;25763;49.972;8.568;2023-05-07T08:34:48;23.42;;;22.13;;
40058;SDS011;25763;49.972;8.568;2023-05-07T08:37:14;21.85;;;20.65;;
40058;SDS011;25763;49.972;8.568;2023-05-07T08:39:39;22.15;;;20.90;;
40058;SDS011;25763;49.972;8.568;2023-05-07T08:42:04;23.00;;;21.70;;
40058;SDS011;25763;49.972;8.568;2023-05-07T08:44:33;21.55;;;20.35;;
40058;SDS011;25763;49.972;8.568;2023-05-07T08:47:00;18.27;;;17.25;;
40058;SDS011;25763;49.972;8.568;2023-05-07T08:49:27;14.18;;;13.38;;
40058;SDS011;25763;49.972;8.568;2023-05-07T08:51:52;14.45;;;13.65;;
40058;SDS011;25763;49.972;8.568;2023-05-07T08:54:18;15.50;;;14.60;;
40058;SDS011;25763;49.972;8.568;2023-05-07T08:56:44;15.77;;;14.88;;
40058;SDS011;25763;49.972;8.568;2023-05-07T08:59:10;13.85;;;13.05;;
40058;SDS011;25763;49.972;8.568;2023-05-07T09:01:35;13.68;;;12.88;;
40058;SDS011;25763;49.972;8.568;2023-05-07T09:04:01;13.20;;;12.40;;
40058;SDS011;25763;49.972;8.568;2023-05-07T09:06:26;12.65;;;11.95;;
40058;SDS011;25763;49.972;8.568;2023-05-07T09:08:52;13.20;;;12.40;;
40058;SDS011;25763;49.972;8.568;2023-05-07T09:11:21;13.85;;;13.00;;
40058;SDS011;25763;49.972;8.568;2023-05-07T09:13:48;12.98;;;12.20;;
40058;SDS011;25763;49.972;8.568;2023-05-07T09:16:17;13.40;;;12.60;;
40058;SDS011;25763;49.972;8.568;2023-05-07T09:18:46;12.95;;;12.15;;
40058;SDS011;25763;49.972;8.568;2023-05-07T09:21:16;12.77;;;11.98;;
40058;SDS011;25763;49.972;8.568;2023-05-07T09:23:42;13.13;;;12.32;;
40058;SDS011;25763;49.972;8.568;2023-05-07T09:26:07;13.38;;;12.57;;
40058;SDS011;25763;49.972;8.568;2023-05-07T09:28:42;12.25;;;11.55;;
40058;SDS011;25763;49.972;8.568;2023-05-07T09:31:08;13.00;;;12.23;;
40058;SDS011;25763;49.972;8.568;2023-05-07T09:33:34;14.10;;;13.30;;
40058;SDS011;25763;49.972;8.568;2023-05-07T09:36:06;13.35;;;12.55;;
40058;SDS011;25763;49.972;8.568;2023-05-07T09:38:33;13.15;;;12.35;;
40058;SDS011;25763;49.972;8.568;2023-05-07T09:41:09;15.15;;;14.25;;
40058;SDS011;25763;49.972;8.568;2023-05-07T09:43:37;14.27;;;13.48;;
40058;SDS011;25763;49.972;8.568;2023-05-07T09:46:04;16.00;;;15.00;;
40058;SDS011;25763;49.972;8.568;2023-05-07T09:48:34;14.00;;;13.15;;
40058;SDS011;25763;49.972;8.568;2023-05-07T09:51:02;15.45;;;14.50;;
40058;SDS011;25763;49.972;8.568;2023-05-07T09:53:41;13.93;;;13.13;;
40058;SDS011;25763;49.972;8.568;2023-05-07T09:56:07;15.40;;;14.50;;
40058;SDS011;25763;49.972;8.568;2023-05-07T09:58:32;14.75;;;13.88;;
40058;SDS011;25763;49.972;8.568;2023-05-07T10:01:02;15.13;;;14.23;;
40058;SDS011;25763;49.972;8.568;2023-05-07T10:03:28;14.50;;;13.70;;
40058;SDS011;25763;49.972;8.568;2023-05-07T10:05:57;15.20;;;14.25;;
40058;SDS011;25763;49.972;8.568;2023-05-07T10:08:23;19.48;;;18.38;;
40058;SDS011;25763;49.972;8.568;2023-05-07T10:10:49;22.00;;;20.70;;
40058;SDS011;25763;49.972;8.568;2023-05-07T10:13:15;20.05;;;18.95;;
40058;SDS011;25763;49.972;8.568;2023-05-07T10:15:42;24.73;;;23.40;;
40058;SDS011;25763;49.972;8.568;2023-05-07T10:18:07;26.58;;;25.15;;
40058;SDS011;25763;49.972;8.568;2023-05-07T10:20:34;29.90;;;28.33;;
40058;SDS011;25763;49.972;8.568;2023-05-07T10:23:02;33.28;;;31.55;;
40058;SDS011;25763;49.972;8.568;2023-05-07T10:25:30;50.80;;;48.22;;
40058;SDS011;25763;49.972;8.568;2023-05-07T10:27:57;47.58;;;45.15;;
40058;SDS011;25763;49.972;8.568;2023-05-07T10:33:10;44.97;;;42.67;;
40058;SDS011;25763;49.972;8.568;2023-05-07T10:35:40;53.67;;;50.97;;
40058;SDS011;25763;49.972;8.568;2023-05-07T10:38:07;58.67;;;55.72;;
40058;SDS011;25763;49.972;8.568;2023-05-07T10:40:33;57.22;;;54.35;;
40058;SDS011;25763;49.972;8.568;2023-05-07T10:42:59;40.35;;;38.25;;
40058;SDS011;25763;49.972;8.568;2023-05-07T10:45:27;44.47;;;42.20;;
40058;SDS011;25763;49.972;8.568;2023-05-07T10:50:38;28.63;;;27.13;;
40058;SDS011;25763;49.972;8.568;2023-05-07T10:55:48;33.95;;;32.15;;
40058;SDS011;25763;49.972;8.568;2023-05-07T11:00:47;24.45;;;23.15;;
40058;SDS011;25763;49.972;8.568;2023-05-07T11:03:13;29.73;;;28.08;;
40058;SDS011;25763;49.972;8.568;2023-05-07T11:05:40;34.42;;;32.67;;
40058;SDS011;25763;49.972;8.568;2023-05-07T11:08:06;32.03;;;30.35;;
40058;SDS011;25763;49.972;8.568;2023-05-07T11:10:53;36.92;;;34.95;;
40058;SDS011;25763;49.972;8.568;2023-05-07T11:13:18;36.72;;;34.85;;
40058;SDS011;25763;49.972;8.568;2023-05-07T11:15:44;44.53;;;42.25;;
40058;SDS011;25763;49.972;8.568;2023-05-07T11:18:11;48.28;;;45.42;;
40058;SDS011;25763;49.972;8.568;2023-05-07T11:28:29;53.28;;;50.58;;
40058;SDS011;25763;49.972;8.568;2023-05-07T11:30:56;76.63;;;72.43;;
40058;SDS011;25763;49.972;8.568;2023-05-07T11:33:22;85.38;;;81.15;;
40058;SDS011;25763;49.972;8.568;2023-05-07T11:35:48;105.15;;;100.00;;
40058;SDS011;25763;49.972;8.568;2023-05-07T11:38:15;100.80;;;95.85;;
40058;SDS011;25763;49.972;8.568;2023-05-07T11:40:51;113.43;;;107.85;;
40058;SDS011;25763;49.972;8.568;2023-05-07T11:43:18;111.78;;;106.28;;
40058;SDS011;25763;49.972;8.568;2023-05-07T11:45:46;109.47;;;104.07;;
40058;SDS011;25763;49.972;8.568;2023-05-07T11:48:13;123.72;;;117.65;;
40058;SDS011;25763;49.972;8.568;2023-05-07T11:50:59;121.55;;;115.57;;
40058;SDS011;25763;49.972;8.568;2023-05-07T11:53:27;126.75;;;120.53;;
40058;SDS011;25763;49.972;8.568;2023-05-07T11:55:54;112.22;;;106.70;;
40058;SDS011;25763;49.972;8.568;2023-05-07T11:58:21;121.60;;;115.60;;
40058;SDS011;25763;49.972;8.568;2023-05-07T12:00:49;117.97;;;112.18;;
40058;SDS011;25763;49.972;8.568;2023-05-07T12:03:14;117.68;;;111.90;;
40058;SDS011;25763;49.972;8.568;2023-05-07T12:05:40;123.90;;;117.82;;
40058;SDS011;25763;49.972;8.568;2023-05-07T12:08:06;124.40;;;118.30;;
40058;SDS011;25763;49.972;8.568;2023-05-07T12:10:32;111.90;;;106.40;;
40058;SDS011;25763;49.972;8.568;2023-05-07T12:12:57;116.70;;;110.97;;
40058;SDS011;25763;49.972;8.568;2023-05-07T12:15:23;118.95;;;113.07;;
40058;SDS011;25763;49.972;8.568;2023-05-07T12:17:48;128.90;;;122.57;;
40058;SDS011;25763;49.972;8.568;2023-05-07T12:20:14;124.20;;;118.07;;
40058;SDS011;25763;49.972;8.568;2023-05-07T12:22:40;124.38;;;118.25;;
40058;SDS011;25763;49.972;8.568;2023-05-07T12:25:06;120.78;;;114.82;;
40058;SDS011;25763;49.972;8.568;2023-05-07T12:27:31;119.03;;;113.18;;
40058;SDS011;25763;49.972;8.568;2023-05-07T12:29:57;118.93;;;113.10;;
40058;SDS011;25763;49.972;8.568;2023-05-07T12:32:23;126.70;;;120.47;;
40058;SDS011;25763;49.972;8.568;2023-05-07T12:34:49;125.68;;;119.45;;
40058;SDS011;25763;49.972;8.568;2023-05-07T12:37:15;124.75;;;118.60;;
40058;SDS011;25763;49.972;8.568;2023-05-07T12:39:47;117.97;;;112.18;;
40058;SDS011;25763;49.972;8.568;2023-05-07T12:42:16;117.75;;;111.90;;
40058;SDS011;25763;49.972;8.568;2023-05-07T12:44:48;71.05;;;67.50;;
40058;SDS011;25763;49.972;8.568;2023-05-07T12:47:14;64.57;;;61.08;;
40058;SDS011;25763;49.972;8.568;2023-05-07T12:49:40;93.88;;;89.22;;
40058;SDS011;25763;49.972;8.568;2023-05-07T12:52:06;80.00;;;76.03;;
40058;SDS011;25763;49.972;8.568;2023-05-07T12:54:33;62.65;;;59.55;;
40058;SDS011;25763;49.972;8.568;2023-05-07T12:57:03;80.20;;;76.20;;
40058;SDS011;25763;49.972;8.568;2023-05-07T13:01:56;43.53;;;41.33;;
40058;SDS011;25763;49.972;8.568;2023-05-07T13:04:23;43.78;;;41.53;;
40058;SDS011;25763;49.972;8.568;2023-05-07T13:06:50;60.38;;;57.38;;
40058;SDS011;25763;49.972;8.568;2023-05-07T13:09:15;65.78;;;62.50;;
40058;SDS011;25763;49.972;8.568;2023-05-07T13:11:40;67.50;;;64.13;;
40058;SDS011;25763;49.972;8.568;2023-05-07T13:14:05;55.88;;;53.08;;
40058;SDS011;25763;49.972;8.568;2023-05-07T13:16:31;86.80;;;82.53;;
40058;SDS011;25763;49.972;8.568;2023-05-07T13:18:56;77.75;;;73.90;;
40058;SDS011;25763;49.972;8.568;2023-05-07T13:21:21;67.20;;;63.83;;
40058;SDS011;25763;49.972;8.568;2023-05-07T13:23:47;60.33;;;57.30;;
40058;SDS011;25763;49.972;8.568;2023-05-07T13:26:12;35.97;;;34.13;;
40058;SDS011;25763;49.972;8.568;2023-05-07T13:28:37;32.47;;;30.80;;
40058;SDS011;25763;49.972;8.568;2023-05-07T13:31:03;35.80;;;33.97;;
40058;SDS011;25763;49.972;8.568;2023-05-07T13:33:28;41.85;;;39.72;;
40058;SDS011;25763;49.972;8.568;2023-05-07T13:35:53;68.80;;;65.40;;
40058;SDS011;25763;49.972;8.568;2023-05-07T13:38:19;53.33;;;50.65;;
40058;SDS011;25763;49.972;8.568;2023-05-07T13:40:44;67.68;;;64.30;;
40058;SDS011;25763;49.972;8.568;2023-05-07T13:43:09;34.33;;;32.53;;
40058;SDS011;25763;49.972;8.568;2023-05-07T13:45:35;32.47;;;30.77;;
40058;SDS011;25763;49.972;8.568;2023-05-07T13:48:00;65.95;;;62.67;;
40058;SDS011;25763;49.972;8.568;2023-05-07T13:50:26;29.77;;;28.17;;
40058;SDS011;25763;49.972;8.568;2023-05-07T13:52:55;52.40;;;49.75;;
40058;SDS011;25763;49.972;8.568;2023-05-07T13:55:21;35.97;;;34.08;;
40058;SDS011;25763;49.972;8.568;2023-05-07T13:57:47;57.85;;;54.95;;
40058;SDS011;25763;49.972;8.568;2023-05-07T14:00:20;49.47;;;46.97;;
40058;SDS011;25763;49.972;8.568;2023-05-07T14:02:45;75.05;;;71.30;;
40058;SDS011;25763;49.972;8.568;2023-05-07T14:05:10;77.85;;;73.97;;
40058;SDS011;25763;49.972;8.568;2023-05-07T14:07:36;48.33;;;45.90;;
40058;SDS011;25763;49.972;8.568;2023-05-07T14:10:02;52.65;;;49.95;;
40058;SDS011;25763;49.972;8.568;2023-05-07T14:12:27;57.55;;;54.65;;
40058;SDS011;25763;49.972;8.568;2023-05-07T14:14:53;39.05;;;37.05;;
40058;SDS011;25763;49.972;8.568;2023-05-07T14:17:18;47.80;;;45.40;;
40058;SDS011;25763;49.972;8.568;2023-05-07T14:19:44;25.42;;;24.10;;
40058;SDS011;25763;49.972;8.568;2023-05-07T14:22:09;27.67;;;26.17;;
40058;SDS011;25763;49.972;8.568;2023-05-07T14:24:35;28.50;;;27.00;;
40058;SDS011;25763;49.972;8.568;2023-05-07T14:27:00;42.53;;;40.38;;
40058;SDS011;25763;49.972;8.568;2023-05-07T14:29:26;30.05;;;28.48;;
40058;SDS011;25763;49.972;8.568;2023-05-07T14:31:51;26.92;;;25.52;;
40058;SDS011;25763;49.972;8.568;2023-05-07T14:34:17;27.58;;;26.15;;
40058;SDS011;25763;49.972;8.568;2023-05-07T14:36:42;27.77;;;26.30;;
40058;SDS011;25763;49.972;8.568;2023-05-07T14:39:08;30.40;;;28.80;;
40058;SDS011;25763;49.972;8.568;2023-05-07T14:41:34;27.55;;;26.13;;